Rio Chiquito, New Mexico
Current Conditions -  °F | °C
As of 11:35 AM on Sunday 23 Nov 2014 (Local Time) from KSKX Reporting Station
Overcast Overcast  
Wind Chill: 17°   Ceiling: 500
Heat Index: 28°   Visibility: 0.25mi
Dew Point: 25°   Wind: 15mph
Humidity: 86%   Direction: 20°NNE
Pressure: 29.81"   Gusts: 22mph
Location:  36.0272°N, 105.768°W
Report Text: KSKX 231835Z AUTO 02013G19KT 1/4SM OVC005 M02/M04 A2981 RMK AO1
Loading
Personal Weather Stations






























Interactive Weather Map New forecast layout! Learn more

10-Day Weather Forecast

Advertisements
Track Severe Weather on mobile